Andrews, North Carolina
Current Conditions -  °F | °C
As of 1:55 PM on Tuesday 27 Jan 2015 (Local Time) from KRHP Reporting Station
Overcast Overcast  
Wind Chill: 32°   Ceiling: 3000
Heat Index: 36°   Visibility: 10mi
Dew Point: 27°   Wind: 6mph
Humidity: 69%   Direction: 80°E
Pressure: 29.93"   Gusts: NA
Location:  35.2°N, 83.82°W
Report Text: KRHP 271855Z AUTO 08005KT 10SM OVC030 02/M03 A2993 RMK AO2 T00241027
Loading
Personal Weather Stations






























Interactive Weather Map New forecast layout! Learn more

10-Day Weather Forecast

Advertisements
Track Severe Weather on mobile